createdAt,value
2018-09-07T00:02:02.589Z,19.90
2018-09-07T00:04:43.597Z,19.80
2018-09-07T00:07:24.207Z,19.80
2018-09-07T00:10:04.802Z,19.80
2018-09-07T00:12:33.991Z,19.70
2018-09-07T00:15:14.196Z,19.70
2018-09-07T00:17:42.829Z,19.70
2018-09-07T00:20:12.160Z,19.60
2018-09-07T00:22:40.833Z,19.60
2018-09-07T00:25:09.158Z,19.60
2018-09-07T00:27:37.445Z,19.60
2018-09-07T00:30:17.716Z,19.60
2018-09-07T00:32:58.236Z,19.60
2018-09-07T00:35:31.430Z,19.60
2018-09-07T00:38:01.675Z,19.60
2018-09-07T00:40:29.909Z,19.50
2018-09-07T00:43:10.984Z,19.50
2018-09-07T00:45:39.249Z,19.50
2018-09-07T00:48:16.553Z,19.50
2018-09-07T00:50:57.212Z,19.60
2018-09-07T00:53:26.555Z,19.50
2018-09-07T00:55:54.932Z,19.50
2018-09-07T00:58:23.756Z,19.50
2018-09-07T01:00:53.537Z,19.50
2018-09-07T01:03:21.843Z,19.50
2018-09-07T01:05:50.189Z,19.50
2018-09-07T01:08:18.481Z,19.50
2018-09-07T01:10:48.239Z,19.50
2018-09-07T01:13:17.061Z,19.50
2018-09-07T01:15:57.286Z,19.60
2018-09-07T01:18:37.968Z,19.60
2018-09-07T01:21:18.592Z,19.60
2018-09-07T01:23:59.236Z,19.60
2018-09-07T01:26:39.905Z,19.60
2018-09-07T01:29:20.391Z,19.60
2018-09-07T01:31:48.665Z,19.50
2018-09-07T01:34:35.088Z,19.50
2018-09-07T01:37:20.830Z,19.50
2018-09-07T01:40:01.092Z,19.50
2018-09-07T01:42:41.591Z,19.50
2018-09-07T01:45:22.363Z,19.40
2018-09-07T01:48:02.549Z,19.40
2018-09-07T01:50:43.284Z,19.40
2018-09-07T01:53:24.778Z,19.30
2018-09-07T01:56:05.708Z,19.30
2018-09-07T01:58:46.272Z,19.20
2018-09-07T02:01:26.789Z,19.10
2018-09-07T02:04:07.461Z,19.10
2018-09-07T02:06:36.361Z,19.20
2018-09-07T02:09:16.602Z,19.20
2018-09-07T02:11:44.877Z,19.20
2018-09-07T02:14:26.169Z,19.10
2018-09-07T02:16:54.458Z,19.10
2018-09-07T02:19:22.755Z,19.10
2018-09-07T02:21:51.030Z,19.10
2018-09-07T02:24:31.734Z,19.10
2018-09-07T02:26:59.962Z,19.10
2018-09-07T02:29:40.316Z,19.10
2018-09-07T02:32:08.559Z,19.20
2018-09-07T02:34:50.173Z,19.30
2018-09-07T02:37:31.112Z,19.10
2018-09-07T02:40:11.758Z,18.90
2018-09-07T02:42:40.023Z,19.10
2018-09-07T02:45:20.973Z,19.00
2018-09-07T02:48:01.566Z,19.00
2018-09-07T02:50:42.045Z,19.00
2018-09-07T02:53:22.542Z,18.80
2018-09-07T02:56:03.088Z,18.90
2018-09-07T02:58:43.769Z,18.70
2018-09-07T03:01:25.489Z,18.80
2018-09-07T03:04:06.104Z,18.90
2018-09-07T03:06:46.835Z,18.90
2018-09-07T03:09:27.438Z,18.90
2018-09-07T03:12:08.029Z,19.00
2018-09-07T03:14:48.563Z,19.10
2018-09-07T03:17:29.231Z,19.20
2018-09-07T03:20:09.353Z,19.10
2018-09-07T03:22:49.791Z,19.00
2018-09-07T03:25:30.302Z,19.00
2018-09-07T03:28:11.009Z,19.10
2018-09-07T03:30:39.271Z,19.10
2018-09-07T03:33:19.500Z,19.20
2018-09-07T03:35:48.694Z,19.20
2018-09-07T03:38:16.917Z,19.20
2018-09-07T03:40:45.091Z,19.20
2018-09-07T03:43:25.591Z,19.20
2018-09-07T03:46:05.869Z,19.20
2018-09-07T03:48:46.987Z,19.20
2018-09-07T03:51:15.210Z,19.20
2018-09-07T03:53:43.556Z,19.20
2018-09-07T03:56:11.800Z,19.20
2018-09-07T03:58:40.463Z,19.20
2018-09-07T04:01:08.893Z,19.30
2018-09-07T04:03:37.135Z,19.30
2018-09-07T04:06:09.534Z,19.20
2018-09-07T04:08:49.660Z,19.30
2018-09-07T04:11:18.781Z,19.20
2018-09-07T04:13:46.983Z,19.20
2018-09-07T04:16:28.223Z,19.20
2018-09-07T04:18:56.445Z,19.20
2018-09-07T04:21:24.726Z,19.20
2018-09-07T04:24:05.533Z,19.30
2018-09-07T04:26:46.148Z,19.30
2018-09-07T04:29:14.400Z,19.30
2018-09-07T04:31:55.428Z,19.30
2018-09-07T04:34:36.023Z,19.10
2018-09-07T04:37:04.297Z,18.90
2018-09-07T04:39:44.475Z,18.90
2018-09-07T04:42:25.083Z,18.90
2018-09-07T04:44:54.158Z,18.80
2018-09-07T04:47:34.220Z,18.80
2018-09-07T04:50:02.533Z,18.80
2018-09-07T04:52:42.802Z,18.60
2018-09-07T04:55:11.349Z,18.50
2018-09-07T04:57:53.237Z,18.40
2018-09-07T05:00:33.888Z,18.40
2018-09-07T05:03:03.644Z,18.50
2018-09-07T05:05:45.536Z,18.50
2018-09-07T05:08:13.887Z,18.50
2018-09-07T05:10:42.122Z,18.50
2018-09-07T05:13:10.466Z,18.60
2018-09-07T05:15:51.342Z,18.60
2018-09-07T05:18:19.563Z,18.60
2018-09-07T05:20:48.081Z,18.70
2018-09-07T05:23:28.581Z,18.70
2018-09-07T05:26:09.204Z,18.70
2018-09-07T05:28:49.891Z,18.70
2018-09-07T05:31:30.564Z,18.60
2018-09-07T05:34:11.116Z,18.40
2018-09-07T05:36:51.719Z,18.40
2018-09-07T05:39:20.087Z,18.40
2018-09-07T05:42:00.895Z,18.30
2018-09-07T05:44:42.712Z,18.40
2018-09-07T05:47:23.326Z,18.40
2018-09-07T05:50:04.080Z,18.40
2018-09-07T05:52:44.797Z,18.40
2018-09-07T05:55:25.292Z,18.40
2018-09-07T05:58:05.842Z,18.30
2018-09-07T06:00:46.624Z,18.30
2018-09-07T06:03:14.997Z,18.40
2018-09-07T06:05:55.925Z,18.50
2018-09-07T06:08:36.571Z,18.50
2018-09-07T06:11:17.047Z,18.70
2018-09-07T06:13:57.559Z,18.70
2018-09-07T06:16:31.405Z,18.70
2018-09-07T06:18:59.575Z,18.80
2018-09-07T06:21:40.446Z,18.80
2018-09-07T06:24:08.873Z,18.70
2018-09-07T06:26:49.770Z,18.70
2018-09-07T06:29:30.374Z,18.70
2018-09-07T06:32:11.174Z,18.70
2018-09-07T06:34:39.359Z,18.80
2018-09-07T06:37:20.265Z,18.70
2018-09-07T06:39:49.666Z,18.70
2018-09-07T06:42:30.620Z,18.80
2018-09-07T06:45:11.222Z,18.80
2018-09-07T06:47:51.818Z,18.80
2018-09-07T06:50:32.380Z,18.70
2018-09-07T06:53:12.980Z,18.80
2018-09-07T06:55:54.766Z,18.90
2018-09-07T06:58:35.208Z,18.90
2018-09-07T07:01:15.670Z,19.00
2018-09-07T07:03:56.256Z,19.10
2018-09-07T07:06:24.631Z,19.10
2018-09-07T07:09:05.596Z,19.20
2018-09-07T07:11:33.882Z,19.30
2018-09-07T07:14:14.725Z,19.50
2018-09-07T07:16:55.396Z,19.60
2018-09-07T07:19:35.985Z,19.70
2018-09-07T07:22:16.536Z,19.80
2018-09-07T07:24:57.177Z,19.80
2018-09-07T07:27:37.753Z,19.90
2018-09-07T07:30:18.390Z,20.00
2018-09-07T07:32:46.867Z,20.20
2018-09-07T07:35:27.755Z,20.30
2018-09-07T07:38:08.253Z,20.40
2018-09-07T07:40:36.584Z,20.60
2018-09-07T07:43:05.003Z,20.70
2018-09-07T07:45:33.320Z,20.70
2018-09-07T07:48:14.300Z,20.70
2018-09-07T07:50:56.178Z,20.80
2018-09-07T07:53:37.253Z,20.80
2018-09-07T07:56:18.002Z,20.80
2018-09-07T07:58:59.847Z,20.80
2018-09-07T08:01:40.114Z,20.80
2018-09-07T08:04:20.857Z,20.70
2018-09-07T08:07:01.376Z,20.60
2018-09-07T08:09:29.637Z,20.60
2018-09-07T08:11:58.167Z,20.50
2018-09-07T08:14:39.170Z,20.40
2018-09-07T08:17:07.374Z,20.50
2018-09-07T08:19:48.083Z,20.50
2018-09-07T08:22:29.622Z,20.50
2018-09-07T08:25:10.216Z,20.50
2018-09-07T08:27:41.429Z,20.40
2018-09-07T08:30:22.551Z,20.40
2018-09-07T08:32:50.888Z,20.30
2018-09-07T08:35:31.790Z,20.20
2018-09-07T08:38:12.367Z,20.20
2018-09-07T08:40:40.742Z,20.20
2018-09-07T08:43:21.757Z,20.20
2018-09-07T08:45:51.927Z,20.20
2018-09-07T08:48:20.190Z,20.30
2018-09-07T08:50:48.459Z,20.30
2018-09-07T08:53:16.740Z,20.40
2018-09-07T08:55:57.338Z,20.60
2018-09-07T08:58:25.727Z,20.70
2018-09-07T09:01:06.914Z,20.70
2018-09-07T09:03:35.146Z,20.70
2018-09-07T09:06:15.933Z,20.70
2018-09-07T09:08:56.551Z,20.80
2018-09-07T09:11:37.161Z,20.90
2018-09-07T09:14:05.404Z,20.90
2018-09-07T09:16:45.677Z,21.10
2018-09-07T09:19:26.225Z,21.30
2018-09-07T09:22:06.725Z,21.40
2018-09-07T09:24:47.373Z,21.50
2018-09-07T09:27:15.857Z,21.50
2018-09-07T09:29:56.641Z,21.50
2018-09-07T09:32:37.248Z,21.70
2018-09-07T09:35:05.571Z,21.80
2018-09-07T09:37:46.652Z,21.90
2018-09-07T09:40:15.328Z,22.20
2018-09-07T09:42:55.913Z,22.30
2018-09-07T09:45:24.241Z,22.30
2018-09-07T09:48:05.150Z,22.20
2018-09-07T09:50:33.369Z,22.10
2018-09-07T09:53:14.473Z,21.90
2018-09-07T09:55:42.799Z,21.80
2018-09-07T09:58:11.235Z,21.60
2018-09-07T10:00:56.793Z,21.60
2018-09-07T10:03:43.242Z,21.50
2018-09-07T10:06:23.455Z,21.50
2018-09-07T10:09:04.936Z,21.60
2018-09-07T10:11:33.298Z,21.70
2018-09-07T10:14:03.090Z,21.70
2018-09-07T10:16:32.825Z,21.80
2018-09-07T10:19:13.100Z,22.00
2018-09-07T10:21:53.558Z,22.10
2018-09-07T10:24:34.222Z,22.20
2018-09-07T10:27:14.714Z,22.00
2018-09-07T10:29:42.968Z,21.90
2018-09-07T10:32:23.557Z,21.80
2018-09-07T10:34:51.802Z,21.70
2018-09-07T10:37:32.598Z,21.70
2018-09-07T10:40:01.941Z,21.70
2018-09-07T10:42:39.670Z,21.70
2018-09-07T10:45:20.186Z,21.70
2018-09-07T10:47:54.018Z,21.50
2018-09-07T10:50:35.076Z,21.40
2018-09-07T10:53:15.850Z,21.40
2018-09-07T10:55:44.265Z,21.40
2018-09-07T10:58:25.221Z,21.30
2018-09-07T11:01:05.881Z,21.20
2018-09-07T11:03:46.572Z,21.10
2018-09-07T11:06:27.263Z,21.00
2018-09-07T11:09:08.044Z,20.90
2018-09-07T11:11:36.266Z,20.80
2018-09-07T11:14:06.406Z,20.80
2018-09-07T11:16:46.982Z,21.00
2018-09-07T11:19:27.628Z,21.20
2018-09-07T11:22:08.265Z,21.40
2018-09-07T11:24:48.741Z,21.50
2018-09-07T11:27:29.418Z,21.60
2018-09-07T11:30:10.056Z,21.70
2018-09-07T11:32:50.756Z,21.80
2018-09-07T11:35:31.295Z,21.90
2018-09-07T11:38:11.879Z,21.90
2018-09-07T11:40:52.739Z,21.80
2018-09-07T11:43:33.352Z,21.80
2018-09-07T11:46:15.006Z,21.80
2018-09-07T11:48:55.754Z,21.70
2018-09-07T11:51:36.298Z,21.70
2018-09-07T11:54:17.078Z,21.80
2018-09-07T11:56:45.322Z,21.80
2018-09-07T11:59:26.260Z,22.00
2018-09-07T12:02:07.105Z,22.30
2018-09-07T12:04:47.724Z,22.60
2018-09-07T12:07:16.145Z,23.00
2018-09-07T12:09:57.217Z,23.60
2018-09-07T12:12:29.291Z,24.40
2018-09-07T12:14:58.322Z,25.30
2018-09-07T12:17:39.372Z,25.30
2018-09-07T12:20:07.606Z,25.50
2018-09-07T12:22:48.657Z,25.80
2018-09-07T12:25:29.267Z,25.90
2018-09-07T12:27:57.657Z,25.30
2018-09-07T12:30:38.717Z,24.90
2018-09-07T12:33:19.486Z,24.40
2018-09-07T12:35:48.930Z,24.60
2018-09-07T12:38:29.746Z,24.80
2018-09-07T12:40:58.126Z,24.90
2018-09-07T12:43:39.099Z,24.90
2018-09-07T12:46:19.668Z,24.90
2018-09-07T12:49:00.311Z,24.60
2018-09-07T12:51:40.967Z,24.20
2018-09-07T12:54:21.776Z,24.00
2018-09-07T12:57:02.550Z,23.70
2018-09-07T12:59:42.926Z,23.60
2018-09-07T13:02:23.843Z,23.50
2018-09-07T13:05:04.402Z,23.60
2018-09-07T13:07:44.926Z,23.70
2018-09-07T13:10:25.580Z,23.80
2018-09-07T13:13:06.299Z,24.10
2018-09-07T13:15:46.782Z,24.00
2018-09-07T13:18:27.259Z,24.00
2018-09-07T13:21:07.856Z,23.90
2018-09-07T13:23:48.539Z,23.80
2018-09-07T13:26:16.840Z,23.80
2018-09-07T13:28:45.414Z,23.70
2018-09-07T13:31:25.575Z,23.50
2018-09-07T13:33:53.788Z,23.70
2018-09-07T13:36:22.665Z,23.90
2018-09-07T13:38:56.837Z,23.90
2018-09-07T13:41:25.129Z,23.90
2018-09-07T13:43:53.427Z,23.80
2018-09-07T13:47:50.938Z,23.70
2018-09-07T13:50:19.172Z,23.90
2018-09-07T13:53:00.265Z,24.60
2018-09-07T13:55:40.821Z,24.70
2018-09-07T13:58:09.156Z,24.80
2018-09-07T14:00:40.005Z,25.20
2018-09-07T14:03:21.124Z,25.50
2018-09-07T14:05:49.857Z,25.60
2018-09-07T14:08:19.157Z,25.90
2018-09-07T14:10:49.084Z,26.30
2018-09-07T14:13:17.479Z,26.70
2018-09-07T14:15:57.937Z,26.90
2018-09-07T14:18:38.451Z,26.70
2018-09-07T14:21:06.782Z,26.10
2018-09-07T14:23:35.100Z,25.50
2018-09-07T14:26:04.190Z,25.10
2018-09-07T14:28:46.734Z,25.00
2018-09-07T14:31:15.056Z,24.90
2018-09-07T14:33:55.624Z,24.90
2018-09-07T14:36:36.406Z,24.80
2018-09-07T14:39:16.950Z,24.70
2018-09-07T14:41:45.188Z,24.70
2018-09-07T14:44:13.568Z,24.70
2018-09-07T14:46:53.960Z,24.80
2018-09-07T14:49:22.335Z,24.80
2018-09-07T14:52:03.372Z,25.00
2018-09-07T14:54:44.254Z,25.10
2018-09-07T14:57:24.834Z,25.20
2018-09-07T15:00:05.345Z,25.40
2018-09-07T15:02:46.003Z,25.50
2018-09-07T15:05:26.806Z,25.50
2018-09-07T15:07:55.116Z,25.40
2018-09-07T15:10:35.929Z,25.10
2018-09-07T15:13:16.715Z,25.00
2018-09-07T15:15:57.306Z,24.80
2018-09-07T15:18:26.036Z,24.60
2018-09-07T15:21:06.881Z,24.70
2018-09-07T15:23:35.386Z,24.60
2018-09-07T15:26:15.996Z,24.60
2018-09-07T15:28:56.767Z,24.70
2018-09-07T15:31:25.554Z,24.60
2018-09-07T15:33:53.890Z,24.80
2018-09-07T15:36:28.031Z,24.90
2018-09-07T15:39:08.408Z,25.00
2018-09-07T15:41:40.082Z,25.10
2018-09-07T15:44:20.990Z,25.10
2018-09-07T15:47:01.634Z,25.00
2018-09-07T15:49:42.252Z,25.00
2018-09-07T15:52:10.620Z,25.10
2018-09-07T15:54:51.534Z,25.00
2018-09-07T15:57:19.853Z,24.90
2018-09-07T16:00:00.901Z,24.70
2018-09-07T16:02:29.273Z,24.70
2018-09-07T16:04:57.576Z,24.50
2018-09-07T16:07:25.889Z,24.40
2018-09-07T16:09:54.172Z,24.30
2018-09-07T16:12:34.626Z,24.20
2018-09-07T16:15:15.297Z,24.20
2018-09-07T16:17:43.625Z,24.10
2018-09-07T16:20:23.789Z,24.10
2018-09-07T16:22:52.053Z,24.00
2018-09-07T16:25:32.932Z,24.00
2018-09-07T16:28:01.230Z,24.00
2018-09-07T16:30:42.078Z,23.90
2018-09-07T16:33:10.321Z,23.80
2018-09-07T16:35:38.669Z,23.80
2018-09-07T16:38:18.986Z,23.80
2018-09-07T16:40:59.642Z,23.80
2018-09-07T16:43:40.241Z,23.80
2018-09-07T16:46:20.875Z,23.70
2018-09-07T16:49:01.385Z,23.60
2018-09-07T16:51:41.924Z,23.50
2018-09-07T16:54:23.703Z,23.50
2018-09-07T16:56:51.918Z,23.40
2018-09-07T16:59:32.754Z,23.40
2018-09-07T17:02:00.987Z,23.30
2018-09-07T17:04:29.232Z,23.30
2018-09-07T17:06:57.395Z,23.20
2018-09-07T17:09:38.249Z,23.20
2018-09-07T17:12:06.593Z,23.20
2018-09-07T17:14:41.010Z,23.20
2018-09-07T17:17:09.251Z,23.20
2018-09-07T17:19:37.969Z,23.20
2018-09-07T17:22:06.488Z,23.10
2018-09-07T17:24:34.893Z,23.10
2018-09-07T17:27:04.285Z,23.10
2018-09-07T17:29:37.604Z,23.00
2018-09-07T17:32:18.036Z,23.00
2018-09-07T17:34:47.344Z,23.00
2018-09-07T17:37:15.645Z,22.90
2018-09-07T17:39:56.536Z,22.80
2018-09-07T17:42:37.204Z,22.80
2018-09-07T17:45:05.449Z,22.70
2018-09-07T17:47:47.268Z,22.80
2018-09-07T17:50:28.192Z,22.80
2018-09-07T17:52:56.426Z,22.90
2018-09-07T17:55:24.636Z,22.90
2018-09-07T17:58:06.302Z,22.90
2018-09-07T18:00:47.137Z,23.00
2018-09-07T18:03:27.813Z,23.00
2018-09-07T18:06:15.233Z,23.00
2018-09-07T18:08:43.467Z,23.00
2018-09-07T18:11:11.702Z,23.00
2018-09-07T18:13:52.332Z,23.00
2018-09-07T18:16:32.894Z,22.90
2018-09-07T18:19:04.112Z,22.90
2018-09-07T18:21:32.326Z,22.90
2018-09-07T18:24:00.665Z,22.90
2018-09-07T18:26:28.965Z,22.90
2018-09-07T18:29:03.626Z,22.90
2018-09-07T18:31:32.955Z,22.90
2018-09-07T18:34:13.655Z,22.90
2018-09-07T18:36:54.340Z,22.90
2018-09-07T18:39:34.988Z,22.90
2018-09-07T18:42:15.616Z,22.80
2018-09-07T18:44:43.866Z,22.60
2018-09-07T18:47:12.118Z,22.20
2018-09-07T18:49:52.946Z,21.90
2018-09-07T18:52:21.264Z,21.80
2018-09-07T18:55:02.185Z,21.50
2018-09-07T18:57:30.415Z,21.40
2018-09-07T19:00:11.504Z,21.10
2018-09-07T19:02:52.230Z,21.00
2018-09-07T19:05:32.922Z,20.90
2018-09-07T19:08:01.298Z,21.00
2018-09-07T19:10:42.294Z,20.80
2018-09-07T19:13:10.707Z,20.70
2018-09-07T19:15:39.972Z,20.70
2018-09-07T19:18:08.242Z,20.60
2018-09-07T19:20:49.182Z,20.70
2018-09-07T19:23:17.553Z,20.60
2018-09-07T19:25:45.868Z,20.70
2018-09-07T19:28:14.176Z,20.50
2018-09-07T19:30:54.803Z,20.50
2018-09-07T19:33:35.462Z,20.50
2018-09-07T19:36:03.752Z,20.60
2018-09-07T19:38:44.581Z,20.70
2018-09-07T19:41:25.319Z,20.70
2018-09-07T19:43:54.485Z,20.70
2018-09-07T19:46:22.794Z,20.80
2018-09-07T19:48:51.120Z,20.90
2018-09-07T19:51:26.494Z,21.00
2018-09-07T19:53:54.710Z,21.10
2018-09-07T19:56:35.916Z,21.20
2018-09-07T19:59:04.326Z,21.20
2018-09-07T20:01:45.171Z,21.10
2018-09-07T20:04:25.837Z,21.10
2018-09-07T20:07:06.774Z,21.10
2018-09-07T20:09:47.370Z,21.10
2018-09-07T20:12:15.723Z,21.10
2018-09-07T20:14:55.887Z,21.10
2018-09-07T20:17:24.739Z,21.10
2018-09-07T20:20:05.172Z,21.00
2018-09-07T20:22:45.860Z,21.00
2018-09-07T20:25:26.569Z,20.80
2018-09-07T20:28:07.346Z,20.70
2018-09-07T20:30:48.065Z,20.60
2018-09-07T20:33:28.537Z,20.60
2018-09-07T20:35:57.123Z,20.50
2018-09-07T20:38:25.457Z,20.40
2018-09-07T20:41:05.783Z,20.30
2018-09-07T20:43:36.257Z,20.30
2018-09-07T20:46:09.993Z,20.20
2018-09-07T20:48:38.546Z,20.30
2018-09-07T20:51:13.928Z,20.30
2018-09-07T20:53:43.628Z,20.30
2018-09-07T20:56:11.858Z,20.30
2018-09-07T20:58:40.887Z,20.30
2018-09-07T21:01:09.107Z,20.40
2018-09-07T21:03:37.401Z,20.30
2018-09-07T21:06:10.150Z,20.30
2018-09-07T21:08:39.947Z,20.30
2018-09-07T21:11:09.132Z,20.30
2018-09-07T21:13:38.278Z,20.20
2018-09-07T21:16:06.579Z,20.10
2018-09-07T21:18:41.172Z,20.10
2018-09-07T21:21:09.404Z,20.00
2018-09-07T21:23:37.636Z,20.00
2018-09-07T21:26:07.766Z,20.00
2018-09-07T21:28:47.991Z,20.00
2018-09-07T21:31:16.212Z,19.90
2018-09-07T21:33:47.383Z,20.00
2018-09-07T21:36:28.266Z,19.90
2018-09-07T21:39:09.168Z,19.90
2018-09-07T21:41:49.368Z,19.80
2018-09-07T21:44:30.207Z,19.80
2018-09-07T21:46:58.461Z,19.60
2018-09-07T21:49:38.824Z,19.50
2018-09-07T21:52:19.619Z,19.50
2018-09-07T21:55:00.090Z,19.50
2018-09-07T21:57:40.720Z,19.40
2018-09-07T22:00:21.439Z,19.30
2018-09-07T22:02:49.769Z,19.30
2018-09-07T22:05:19.711Z,19.30
2018-09-07T22:07:53.422Z,19.30
2018-09-07T22:10:34.640Z,19.30
2018-09-07T22:13:02.921Z,19.20
2018-09-07T22:15:31.287Z,19.20
2018-09-07T22:18:11.656Z,19.20
2018-09-07T22:20:39.939Z,19.20
2018-09-07T22:23:20.645Z,19.20
2018-09-07T22:26:01.235Z,19.00
2018-09-07T22:28:29.532Z,18.90
2018-09-07T22:31:10.647Z,18.70
2018-09-07T22:33:51.314Z,18.70
2018-09-07T22:36:31.848Z,18.70
2018-09-07T22:39:12.613Z,18.60
2018-09-07T22:41:53.493Z,18.60
2018-09-07T22:44:21.790Z,18.60
2018-09-07T22:47:02.846Z,18.60
2018-09-07T22:49:43.591Z,18.60
2018-09-07T22:52:11.861Z,18.50
2018-09-07T22:54:40.145Z,18.40
2018-09-07T22:57:08.946Z,18.30
2018-09-07T22:59:49.492Z,18.30
2018-09-07T23:02:29.968Z,18.20
2018-09-07T23:05:10.650Z,18.10
2018-09-07T23:07:51.077Z,18.10
2018-09-07T23:10:19.361Z,18.00
2018-09-07T23:12:47.641Z,18.00
2018-09-07T23:15:27.959Z,18.10
2018-09-07T23:17:56.489Z,18.10
2018-09-07T23:20:37.280Z,18.20
2018-09-07T23:23:17.987Z,18.20
2018-09-07T23:25:53.738Z,18.20
2018-09-07T23:28:34.255Z,18.10
2018-09-07T23:31:02.613Z,18.10
2018-09-07T23:33:31.793Z,18.00
2018-09-07T23:36:12.395Z,18.00
2018-09-07T23:38:40.699Z,17.80
2018-09-07T23:41:12.180Z,17.80
2018-09-07T23:43:52.428Z,17.80
2018-09-07T23:46:21.139Z,17.90
2018-09-07T23:49:02.040Z,17.80
2018-09-07T23:51:32.073Z,17.60
2018-09-07T23:54:00.661Z,17.50
2018-09-07T23:56:29.840Z,17.40
2018-09-07T23:59:11.092Z,17.40
